Time;durP1;ratioP1;P1;durP2;ratioP2;P2;SDS_P1;SDS_P2;PMS_P1;PMS_P2;Temp;Humidity;BMP_temperature;BMP_pressure;BME280_temperature;BME280_humidity;BME280_pressure;Samples;Min_cycle;Max_cycle;Signal;HPM_P1;HPM_P2
2023/08/10 00:00:46;;;;;;;;;;;18.10;92.10;;;;;;5115383;27;19919;-68
2023/08/10 00:03:12;;;;;;;;;;;18.10;92.40;;;;;;5108917;28;19988;-70
2023/08/10 00:05:39;;;;;;;;;;;18.20;91.50;;;;;;5110481;28;19937;-69
2023/08/10 00:08:06;;;;;;;;;;;18.20;91.90;;;;;;5106052;28;20520;-68
2023/08/10 00:10:32;;;;;;;;;;;18.20;91.70;;;;;;5109286;28;19922;-68
2023/08/10 00:12:59;;;;;;;;;;;18.30;91.70;;;;;;5110044;28;20400;-69
2023/08/10 00:15:26;;;;;;;;;;;18.40;91.30;;;;;;5102012;28;19919;-67
2023/08/10 00:17:53;;;;;;;;;;;18.50;91.20;;;;;;5108098;28;20655;-70
2023/08/10 00:20:20;;;;;;;;;;;18.60;91.20;;;;;;5093161;28;19961;-69
2023/08/10 00:22:47;;;;;;;;;;;18.70;91.00;;;;;;5110951;28;19948;-67
2023/08/10 00:25:14;;;;;;;;;;;18.70;90.50;;;;;;5110180;28;19912;-69
2023/08/10 00:27:41;;;;;;;;;;;18.80;90.60;;;;;;5110826;28;19998;-69
2023/08/10 00:30:08;;;;;;;;;;;18.80;90.30;;;;;;5111420;28;19922;-72
2023/08/10 00:32:35;;;;;;;;;;;18.90;90.30;;;;;;5105850;28;20401;-70
2023/08/10 00:35:02;;;;;;;;;;;18.90;90.50;;;;;;5108806;28;19911;-69
2023/08/10 00:37:29;;;;;;;;;;;19.10;90.60;;;;;;5090753;28;19915;-70
2023/08/10 00:39:56;;;;;;;;;;;19.10;90.50;;;;;;5110766;28;20443;-71
2023/08/10 00:42:23;;;;;;;;;;;19.20;90.60;;;;;;5112330;28;20567;-70
2023/08/10 00:45:01;;;;;;;;;;;19.20;90.10;;;;;;5108548;27;19916;-67
2023/08/10 00:47:28;;;;;;;;;;;19.30;90.20;;;;;;5108137;28;19916;-68
2023/08/10 00:49:54;;;;;;;;;;;19.40;89.90;;;;;;5104934;28;20316;-69
2023/08/10 00:52:21;;;;;;;;;;;19.50;89.90;;;;;;5105963;28;19938;-69
2023/08/10 00:54:48;;;;;;;;;;;19.60;89.60;;;;;;5105692;28;19919;-67
2023/08/10 00:57:14;;;;;;;;;;;19.70;88.60;;;;;;5101552;28;19962;-68
2023/08/10 00:59:42;;;;;;;;;;;19.80;88.70;;;;;;5106316;28;19916;-67
2023/08/10 01:02:10;;;;;;;;;;;19.80;88.40;;;;;;5105538;28;19919;-67
2023/08/10 01:04:37;;;;;;;;;;;19.90;87.70;;;;;;5103833;28;20342;-69
2023/08/10 01:07:23;;;;;;;;;;;20.00;88.40;;;;;;5103943;28;19920;-69
2023/08/10 01:09:58;;;;;;;;;;;20.10;88.80;;;;;;5102904;28;20010;-68
2023/08/10 01:12:34;;;;;;;;;;;20.10;87.60;;;;;;5105830;28;19912;-73
2023/08/10 01:15:03;;;;;;;;;;;20.20;87.00;;;;;;5105431;28;19936;-70
2023/08/10 01:17:33;;;;;;;;;;;20.30;87.00;;;;;;5104615;28;19948;-69
2023/08/10 01:20:03;;;;;;;;;;;20.50;87.10;;;;;;5104830;28;20031;-69
2023/08/10 01:22:37;;;;;;;;;;;20.60;86.40;;;;;;5104177;28;19973;-70
2023/08/10 01:25:07;;;;;;;;;;;20.70;86.50;;;;;;5106565;28;19916;-70
2023/08/10 01:27:34;;;;;;;;;;;20.70;85.20;;;;;;5104751;28;19908;-68
2023/08/10 01:30:01;;;;;;;;;;;20.80;84.90;;;;;;5106513;28;19915;-69
2023/08/10 01:32:32;;;;;;;;;;;20.90;84.00;;;;;;5107199;28;19984;-69
2023/08/10 01:34:59;;;;;;;;;;;21.00;84.40;;;;;;5106433;28;19908;-71
2023/08/10 01:37:26;;;;;;;;;;;21.20;84.10;;;;;;5106443;28;20428;-70
2023/08/10 01:39:53;;;;;;;;;;;21.20;84.10;;;;;;5106398;28;19959;-69
2023/08/10 01:42:20;;;;;;;;;;;21.30;84.20;;;;;;5104544;28;19908;-70
2023/08/10 01:44:46;;;;;;;;;;;21.40;84.00;;;;;;5125921;28;19926;-68
2023/08/10 01:47:39;;;;;;;;;;;21.50;83.70;;;;;;5127263;28;19907;-69
2023/08/10 01:50:08;;;;;;;;;;;21.60;83.00;;;;;;5095166;28;19912;-69
2023/08/10 01:52:36;;;;;;;;;;;21.70;83.00;;;;;;5126158;28;19920;-68
2023/08/10 01:55:04;;;;;;;;;;;21.80;82.70;;;;;;5108382;28;19912;-70
2023/08/10 01:57:31;;;;;;;;;;;22.00;83.20;;;;;;5108329;28;19912;-70
2023/08/10 01:59:57;;;;;;;;;;;22.30;83.40;;;;;;5110465;28;19961;-68
2023/08/10 02:02:24;;;;;;;;;;;22.50;81.00;;;;;;5103825;28;19995;-70
2023/08/10 02:04:51;;;;;;;;;;;22.70;80.70;;;;;;5104450;28;20024;-70
2023/08/10 02:07:18;;;;;;;;;;;22.80;80.00;;;;;;5105307;28;20441;-70
2023/08/10 02:09:44;;;;;;;;;;;23.10;80.10;;;;;;5111986;28;19994;-70
2023/08/10 02:12:11;;;;;;;;;;;23.30;79.30;;;;;;5110967;28;19916;-67
2023/08/10 02:14:38;;;;;;;;;;;23.30;78.60;;;;;;5094675;28;19919;-68
2023/08/10 02:17:04;;;;;;;;;;;23.40;78.70;;;;;;5108705;28;19920;-71
2023/08/10 02:19:31;;;;;;;;;;;23.20;76.10;;;;;;5111711;28;19941;-71
2023/08/10 02:21:57;;;;;;;;;;;23.00;77.30;;;;;;5109033;28;19968;-70
2023/08/10 02:24:24;;;;;;;;;;;22.80;76.70;;;;;;5113529;28;19968;-72
2023/08/10 02:26:51;;;;;;;;;;;22.70;77.40;;;;;;5112762;28;19923;-70
2023/08/10 02:29:17;;;;;;;;;;;22.50;75.00;;;;;;5112961;28;19951;-69
2023/08/10 02:31:45;;;;;;;;;;;22.50;74.20;;;;;;5114067;28;19908;-70
2023/08/10 02:34:12;;;;;;;;;;;22.70;74.40;;;;;;5113279;28;19912;-69
2023/08/10 02:36:39;;;;;;;;;;;22.90;72.20;;;;;;5098000;28;20623;-69
2023/08/10 02:39:05;;;;;;;;;;;23.20;71.30;;;;;;5112213;28;20408;-72
2023/08/10 02:41:32;;;;;;;;;;;23.60;70.40;;;;;;5112216;28;19912;-69
2023/08/10 02:43:59;;;;;;;;;;;23.90;69.40;;;;;;5094897;28;20372;-69
2023/08/10 02:46:25;;;;;;;;;;;24.00;69.50;;;;;;5106604;28;19919;-74
2023/08/10 02:48:53;;;;;;;;;;;24.10;69.40;;;;;;5100228;28;20321;-68
2023/08/10 02:51:19;;;;;;;;;;;24.40;68.70;;;;;;5113423;27;19912;-71
2023/08/10 02:53:46;;;;;;;;;;;24.60;67.60;;;;;;5116445;27;20016;-71
2023/08/10 02:56:12;;;;;;;;;;;25.00;68.30;;;;;;5112044;28;19915;-71
2023/08/10 02:58:39;;;;;;;;;;;25.50;66.90;;;;;;5111638;28;19915;-69
2023/08/10 03:01:09;;;;;;;;;;;25.80;66.10;;;;;;5112611;28;19908;-70
2023/08/10 03:03:35;;;;;;;;;;;25.60;65.70;;;;;;5110159;28;20010;-68
2023/08/10 03:06:02;;;;;;;;;;;25.30;65.50;;;;;;5111427;28;19955;-71
2023/08/10 03:08:29;;;;;;;;;;;24.80;67.00;;;;;;5109931;28;19965;-72
2023/08/10 03:10:55;;;;;;;;;;;24.50;66.90;;;;;;5112030;28;19908;-71
2023/08/10 03:13:23;;;;;;;;;;;24.70;66.10;;;;;;5108276;28;20380;-72
2023/08/10 03:15:51;;;;;;;;;;;25.10;63.80;;;;;;5112256;28;20314;-70
2023/08/10 03:18:18;;;;;;;;;;;25.70;63.10;;;;;;5110123;28;20348;-75
2023/08/10 03:20:45;;;;;;;;;;;26.50;62.20;;;;;;5111658;28;19911;-71
2023/08/10 03:23:11;;;;;;;;;;;27.80;60.00;;;;;;5112199;28;19926;-70
2023/08/10 03:25:38;;;;;;;;;;;28.80;59.00;;;;;;5094514;28;20502;-70
2023/08/10 03:28:05;;;;;;;;;;;29.90;58.00;;;;;;5104191;28;19912;-71
2023/08/10 03:30:32;;;;;;;;;;;30.70;55.20;;;;;;5099471;28;19912;-68
2023/08/10 03:32:59;;;;;;;;;;;30.70;54.20;;;;;;5098506;28;19912;-69
2023/08/10 03:35:26;;;;;;;;;;;30.70;54.60;;;;;;5112850;28;20013;-70
2023/08/10 03:37:52;;;;;;;;;;;30.80;54.10;;;;;;5112288;28;19912;-70
2023/08/10 03:40:19;;;;;;;;;;;30.60;54.70;;;;;;5100712;28;19924;-69
2023/08/10 03:42:45;;;;;;;;;;;31.10;53.40;;;;;;5112710;28;20014;-70
2023/08/10 03:45:12;;;;;;;;;;;31.20;53.90;;;;;;5112707;28;20006;-69
2023/08/10 03:47:39;;;;;;;;;;;31.70;52.80;;;;;;5111411;28;20006;-71
2023/08/10 03:50:06;;;;;;;;;;;32.30;51.90;;;;;;5111551;28;19908;-71
2023/08/10 03:52:33;;;;;;;;;;;32.50;51.50;;;;;;5111803;28;20301;-71
2023/08/10 03:55:00;;;;;;;;;;;32.60;50.80;;;;;;5112077;28;19968;-72
2023/08/10 03:57:27;;;;;;;;;;;30.80;51.50;;;;;;5112226;28;20310;-68
2023/08/10 03:59:53;;;;;;;;;;;30.30;53.00;;;;;;5110937;28;19907;-69
2023/08/10 04:02:21;;;;;;;;;;;30.60;53.40;;;;;;5094928;28;19951;-70
2023/08/10 04:04:48;;;;;;;;;;;30.70;52.00;;;;;;5112247;28;19916;-69
2023/08/10 04:07:15;;;;;;;;;;;30.50;52.10;;;;;;5111189;28;19954;-69
2023/08/10 04:09:46;;;;;;;;;;;30.30;52.20;;;;;;5111479;28;19915;-69
2023/08/10 04:12:14;;;;;;;;;;;30.10;53.00;;;;;;5110383;28;20396;-68
2023/08/10 04:14:41;;;;;;;;;;;30.50;52.80;;;;;;5091177;28;20307;-68
2023/08/10 04:17:07;;;;;;;;;;;31.20;51.70;;;;;;5111259;28;19937;-72
2023/08/10 04:19:35;;;;;;;;;;;31.20;51.80;;;;;;5111113;28;19915;-69
2023/08/10 04:22:02;;;;;;;;;;;30.80;52.60;;;;;;5089825;28;19912;-68
2023/08/10 04:24:28;;;;;;;;;;;30.30;52.80;;;;;;5089799;28;19923;-68
2023/08/10 04:26:55;;;;;;;;;;;30.10;53.20;;;;;;5110814;28;19917;-69
2023/08/10 04:29:26;;;;;;;;;;;30.30;52.50;;;;;;5111468;28;19969;-70
2023/08/10 04:31:53;;;;;;;;;;;30.80;52.00;;;;;;5111082;28;20355;-68
2023/08/10 04:34:19;;;;;;;;;;;30.90;51.80;;;;;;5109551;28;19916;-70
2023/08/10 04:36:46;;;;;;;;;;;30.80;51.50;;;;;;5109058;28;19916;-70
2023/08/10 04:39:13;;;;;;;;;;;30.60;52.00;;;;;;5110827;28;19926;-68
2023/08/10 04:41:40;;;;;;;;;;;30.40;51.70;;;;;;5112023;28;20399;-67
2023/08/10 04:44:06;;;;;;;;;;;29.80;52.10;;;;;;5112043;28;19954;-70
2023/08/10 04:46:33;;;;;;;;;;;29.00;52.80;;;;;;5112117;28;20360;-68
2023/08/10 04:48:59;;;;;;;;;;;28.70;53.00;;;;;;5111876;28;19914;-68
2023/08/10 04:51:26;;;;;;;;;;;28.20;53.90;;;;;;5111281;28;20249;-68
2023/08/10 04:53:53;;;;;;;;;;;27.60;54.50;;;;;;5110743;28;19961;-68
2023/08/10 04:56:19;;;;;;;;;;;27.20;55.40;;;;;;5112440;28;19908;-70
2023/08/10 04:58:46;;;;;;;;;;;26.80;55.50;;;;;;5093212;28;19911;-68
2023/08/10 05:01:14;;;;;;;;;;;26.40;56.00;;;;;;5108793;28;19908;-69
2023/08/10 05:03:40;;;;;;;;;;;26.30;56.40;;;;;;5090113;28;19965;-67
2023/08/10 05:06:07;;;;;;;;;;;26.10;56.20;;;;;;5096031;28;19908;-67
2023/08/10 05:08:34;;;;;;;;;;;26.00;56.40;;;;;;5103875;28;20022;-68
2023/08/10 05:11:00;;;;;;;;;;;25.70;56.90;;;;;;5109714;28;19918;-69
2023/08/10 05:13:27;;;;;;;;;;;25.60;57.40;;;;;;5108938;28;20253;-70
2023/08/10 05:15:54;;;;;;;;;;;25.60;57.80;;;;;;5100201;28;19916;-68
2023/08/10 05:18:24;;;;;;;;;;;25.80;57.10;;;;;;5080038;28;19940;-69
2023/08/10 05:20:50;;;;;;;;;;;26.70;56.40;;;;;;5072563;28;19915;-68
2023/08/10 05:23:17;;;;;;;;;;;28.00;55.40;;;;;;5110113;28;19919;-68
2023/08/10 05:25:44;;;;;;;;;;;28.20;54.80;;;;;;5110801;28;19908;-68
2023/08/10 05:28:10;;;;;;;;;;;28.30;54.20;;;;;;5111138;28;19927;-67
2023/08/10 05:30:37;;;;;;;;;;;28.20;52.70;;;;;;5112813;28;19916;-71
2023/08/10 05:33:04;;;;;;;;;;;28.40;53.20;;;;;;5114957;28;20257;-69
2023/08/10 05:35:30;;;;;;;;;;;28.70;52.50;;;;;;5115975;28;20266;-67
2023/08/10 05:37:57;;;;;;;;;;;28.30;53.40;;;;;;5105779;28;19908;-73
2023/08/10 05:40:24;;;;;;;;;;;27.70;53.60;;;;;;5112603;28;19920;-72
2023/08/10 05:42:50;;;;;;;;;;;26.90;54.30;;;;;;5108926;28;19926;-68
2023/08/10 05:45:20;;;;;;;;;;;26.40;55.20;;;;;;5114149;27;19935;-70
2023/08/10 05:47:47;;;;;;;;;;;26.00;55.40;;;;;;5106896;28;20019;-71
2023/08/10 05:50:14;;;;;;;;;;;25.90;56.00;;;;;;5101229;27;19961;-70
2023/08/10 05:52:41;;;;;;;;;;;25.70;55.30;;;;;;5111422;28;20336;-71
2023/08/10 05:55:07;;;;;;;;;;;25.60;55.50;;;;;;5098613;28;19912;-68
2023/08/10 05:57:34;;;;;;;;;;;25.90;55.60;;;;;;5114556;28;19956;-70
2023/08/10 06:00:01;;;;;;;;;;;25.90;55.00;;;;;;5113714;28;20399;-69
2023/08/10 06:02:27;;;;;;;;;;;26.10;56.80;;;;;;5105020;28;19919;-69
2023/08/10 06:04:54;;;;;;;;;;;26.80;55.90;;;;;;5100786;28;19977;-69
2023/08/10 06:07:21;;;;;;;;;;;27.50;54.00;;;;;;5115106;28;19939;-72
2023/08/10 06:09:48;;;;;;;;;;;28.30;53.90;;;;;;5114745;28;19990;-72
2023/08/10 06:12:17;;;;;;;;;;;29.10;51.50;;;;;;5114876;28;19912;-69
2023/08/10 06:14:45;;;;;;;;;;;29.90;51.30;;;;;;5100559;28;19908;-69
2023/08/10 06:17:12;;;;;;;;;;;30.30;50.60;;;;;;5115469;27;20013;-69
2023/08/10 06:19:38;;;;;;;;;;;30.70;47.90;;;;;;5101987;28;19916;-70
2023/08/10 06:22:05;;;;;;;;;;;30.30;47.50;;;;;;5114639;27;19912;-68
2023/08/10 06:24:32;;;;;;;;;;;30.20;47.90;;;;;;5113985;28;19998;-68
2023/08/10 06:26:59;;;;;;;;;;;29.50;47.10;;;;;;5114183;28;20014;-67
2023/08/10 06:29:26;;;;;;;;;;;29.00;47.90;;;;;;5113738;28;20349;-69
2023/08/10 06:31:54;;;;;;;;;;;28.40;48.60;;;;;;5113642;27;19944;-71
2023/08/10 06:34:20;;;;;;;;;;;27.60;47.20;;;;;;5103213;28;19908;-66
2023/08/10 06:36:47;;;;;;;;;;;26.70;48.50;;;;;;5096707;27;19912;-69
2023/08/10 06:39:14;;;;;;;;;;;25.70;48.80;;;;;;5099061;28;20032;-67
2023/08/10 06:41:40;;;;;;;;;;;24.90;49.00;;;;;;5113543;28;20018;-68
2023/08/10 06:44:08;;;;;;;;;;;24.30;48.90;;;;;;5110595;28;19919;-67
2023/08/10 06:46:35;;;;;;;;;;;23.80;49.30;;;;;;5112081;28;19923;-69
2023/08/10 06:49:02;;;;;;;;;;;23.50;50.00;;;;;;5111395;28;19911;-68
2023/08/10 06:51:28;;;;;;;;;;;23.20;50.80;;;;;;5112165;28;19912;-71
2023/08/10 06:53:55;;;;;;;;;;;22.80;50.60;;;;;;5111815;28;19908;-69
2023/08/10 06:56:22;;;;;;;;;;;22.50;50.90;;;;;;5107859;28;19911;-67
2023/08/10 06:58:49;;;;;;;;;;;22.20;51.30;;;;;;5108539;28;20361;-67
2023/08/10 07:01:16;;;;;;;;;;;21.80;52.50;;;;;;5113481;28;19908;-66
2023/08/10 07:03:43;;;;;;;;;;;21.60;52.50;;;;;;5112600;28;19923;-69
2023/08/10 07:06:09;;;;;;;;;;;21.40;53.30;;;;;;5112354;28;19998;-69
2023/08/10 07:08:36;;;;;;;;;;;21.10;53.80;;;;;;5112177;28;20292;-69
2023/08/10 07:11:03;;;;;;;;;;;20.90;54.40;;;;;;5112442;28;19908;-69
2023/08/10 07:13:30;;;;;;;;;;;20.70;54.70;;;;;;5110025;28;19908;-67
2023/08/10 07:15:57;;;;;;;;;;;20.50;55.10;;;;;;5113171;28;19915;-69
2023/08/10 07:18:23;;;;;;;;;;;20.30;55.30;;;;;;5110539;28;20002;-69
2023/08/10 07:20:50;;;;;;;;;;;20.20;55.90;;;;;;5120534;27;19911;-69
2023/08/10 07:23:17;;;;;;;;;;;20.00;56.20;;;;;;5130615;27;19915;-67
2023/08/10 07:25:45;;;;;;;;;;;19.90;56.80;;;;;;5088186;28;19920;-68
2023/08/10 07:28:12;;;;;;;;;;;19.80;57.10;;;;;;5097139;27;19912;-68
2023/08/10 07:30:39;;;;;;;;;;;19.70;57.50;;;;;;5112759;28;19951;-68
2023/08/10 07:33:06;;;;;;;;;;;19.60;57.90;;;;;;5112503;28;20314;-68
2023/08/10 07:35:33;;;;;;;;;;;19.50;58.30;;;;;;5098839;28;20015;-67
2023/08/10 07:37:59;;;;;;;;;;;19.40;58.80;;;;;;5094925;28;19970;-69
2023/08/10 07:40:26;;;;;;;;;;;19.30;59.10;;;;;;5112622;28;19919;-68
2023/08/10 07:42:53;;;;;;;;;;;19.20;59.50;;;;;;5112213;28;19919;-69
2023/08/10 07:45:20;;;;;;;;;;;19.20;59.90;;;;;;5112620;27;20425;-69
2023/08/10 07:47:46;;;;;;;;;;;19.00;60.20;;;;;;5110732;28;19918;-69
2023/08/10 07:50:14;;;;;;;;;;;19.00;60.60;;;;;;5112551;28;19927;-68
2023/08/10 07:52:40;;;;;;;;;;;18.90;60.90;;;;;;5109607;28;19927;-69
2023/08/10 07:55:07;;;;;;;;;;;18.80;61.20;;;;;;5112259;27;19911;-70
2023/08/10 07:57:34;;;;;;;;;;;18.70;61.90;;;;;;5111960;28;19915;-67
2023/08/10 08:00:05;;;;;;;;;;;18.60;62.20;;;;;;5111813;27;20284;-69
2023/08/10 08:02:32;;;;;;;;;;;18.50;61.90;;;;;;5111761;28;19915;-69
2023/08/10 08:04:58;;;;;;;;;;;18.50;62.60;;;;;;5103567;28;20364;-70
2023/08/10 08:07:25;;;;;;;;;;;18.40;63.00;;;;;;5111765;28;20379;-67
2023/08/10 08:09:52;;;;;;;;;;;18.30;63.20;;;;;;5112386;28;19912;-70
2023/08/10 08:12:19;;;;;;;;;;;18.30;63.50;;;;;;5094343;28;20011;-69
2023/08/10 08:14:45;;;;;;;;;;;18.20;64.10;;;;;;5112634;28;19976;-69
2023/08/10 08:17:12;;;;;;;;;;;18.20;64.10;;;;;;5108331;28;19912;-72
2023/08/10 08:19:39;;;;;;;;;;;18.10;64.10;;;;;;5111338;28;19924;-68
2023/08/10 08:22:06;;;;;;;;;;;18.00;64.40;;;;;;5105581;28;19938;-68
2023/08/10 08:24:33;;;;;;;;;;;18.00;64.70;;;;;;5101741;28;19926;-67
2023/08/10 08:26:59;;;;;;;;;;;18.00;64.70;;;;;;5112533;28;19908;-69
2023/08/10 08:29:26;;;;;;;;;;;17.90;64.80;;;;;;5106542;28;19920;-69
2023/08/10 08:31:53;;;;;;;;;;;17.90;65.00;;;;;;5097601;28;19934;-70
2023/08/10 08:34:19;;;;;;;;;;;17.90;65.30;;;;;;5112325;28;19912;-69
2023/08/10 08:36:47;;;;;;;;;;;17.90;65.40;;;;;;5112076;28;19916;-68
2023/08/10 08:39:14;;;;;;;;;;;17.80;65.40;;;;;;5093954;28;19919;-70
2023/08/10 08:41:41;;;;;;;;;;;17.80;65.70;;;;;;5109342;28;19915;-68
2023/08/10 08:44:09;;;;;;;;;;;17.70;65.90;;;;;;5107089;28;19920;-69
2023/08/10 08:46:40;;;;;;;;;;;17.70;66.10;;;;;;5091752;28;19912;-72
2023/08/10 08:49:07;;;;;;;;;;;17.60;66.20;;;;;;5105794;28;19919;-68
2023/08/10 08:51:34;;;;;;;;;;;17.60;66.80;;;;;;5111592;28;19908;-67
2023/08/10 08:54:01;;;;;;;;;;;17.50;66.60;;;;;;5101833;28;19912;-71
2023/08/10 08:56:28;;;;;;;;;;;17.40;66.90;;;;;;5111351;28;19908;-66
2023/08/10 08:58:55;;;;;;;;;;;17.40;67.20;;;;;;5110209;28;20358;-67
2023/08/10 09:01:21;;;;;;;;;;;17.30;67.40;;;;;;5111339;28;19952;-66
2023/08/10 09:03:48;;;;;;;;;;;17.30;67.40;;;;;;5110125;28;19911;-68
2023/08/10 09:06:15;;;;;;;;;;;17.20;67.50;;;;;;5112424;28;19908;-69
2023/08/10 09:08:42;;;;;;;;;;;17.20;68.00;;;;;;5113088;28;19908;-68
2023/08/10 09:11:08;;;;;;;;;;;17.10;68.10;;;;;;5113581;28;19951;-68
2023/08/10 09:13:35;;;;;;;;;;;17.10;68.20;;;;;;5112931;28;19908;-69
2023/08/10 09:16:13;;;;;;;;;;;17.00;68.70;;;;;;5114992;27;20053;-68
2023/08/10 09:18:41;;;;;;;;;;;17.00;68.80;;;;;;5110357;27;19957;-68
2023/08/10 09:21:15;;;;;;;;;;;17.00;69.40;;;;;;5115006;28;19908;-71
2023/08/10 09:23:43;;;;;;;;;;;16.80;69.30;;;;;;5111791;28;19991;-69
2023/08/10 09:26:11;;;;;;;;;;;16.70;69.60;;;;;;5113470;28;19911;-71
2023/08/10 09:28:37;;;;;;;;;;;16.70;69.70;;;;;;5114441;28;19908;-71
2023/08/10 09:31:05;;;;;;;;;;;16.70;69.60;;;;;;5114517;27;19992;-68
2023/08/10 09:33:32;;;;;;;;;;;16.70;69.60;;;;;;5114611;28;20425;-69
2023/08/10 09:36:00;;;;;;;;;;;16.70;70.00;;;;;;5113341;27;20010;-69
2023/08/10 09:38:27;;;;;;;;;;;16.60;70.00;;;;;;5113718;28;19916;-68
2023/08/10 09:41:07;;;;;;;;;;;16.50;70.40;;;;;;5115116;27;19916;-69
2023/08/10 09:43:35;;;;;;;;;;;16.50;70.90;;;;;;5108971;28;20014;-68
2023/08/10 09:46:04;;;;;;;;;;;16.50;70.80;;;;;;5108742;27;20321;-70
2023/08/10 09:48:47;;;;;;;;;;;16.40;70.90;;;;;;5113496;28;19943;-69
2023/08/10 09:51:14;;;;;;;;;;;16.30;71.10;;;;;;5114170;27;19931;-68
2023/08/10 09:53:41;;;;;;;;;;;16.40;71.30;;;;;;5113676;28;19915;-67
2023/08/10 09:56:08;;;;;;;;;;;16.30;71.50;;;;;;5114361;28;19911;-69
2023/08/10 09:58:39;;;;;;;;;;;16.20;71.80;;;;;;5095899;28;19938;-68
2023/08/10 10:01:05;;;;;;;;;;;16.20;71.70;;;;;;5113112;28;20077;-68
2023/08/10 10:03:33;;;;;;;;;;;16.20;71.90;;;;;;5109138;28;20428;-68
2023/08/10 10:06:00;;;;;;;;;;;16.20;71.50;;;;;;5113035;27;19916;-67
2023/08/10 10:08:29;;;;;;;;;;;16.10;71.60;;;;;;5109987;28;19934;-67
2023/08/10 10:10:58;;;;;;;;;;;16.10;72.10;;;;;;5108679;27;19919;-68
2023/08/10 10:13:25;;;;;;;;;;;16.00;72.00;;;;;;5102196;27;20030;-68
2023/08/10 10:15:55;;;;;;;;;;;16.10;72.40;;;;;;5113467;28;20411;-68
2023/08/10 10:18:23;;;;;;;;;;;16.00;72.70;;;;;;5113864;27;19953;-68
2023/08/10 10:20:50;;;;;;;;;;;16.00;72.50;;;;;;5114253;28;19961;-68
2023/08/10 10:23:18;;;;;;;;;;;15.90;72.40;;;;;;5107274;27;19927;-68
2023/08/10 10:25:57;;;;;;;;;;;15.90;72.70;;;;;;5096598;28;19916;-68
2023/08/10 10:28:23;;;;;;;;;;;15.90;73.30;;;;;;5112287;28;19915;-68
2023/08/10 10:30:55;;;;;;;;;;;15.80;73.60;;;;;;5113787;28;19912;-68
2023/08/10 10:33:23;;;;;;;;;;;15.70;73.70;;;;;;5110245;28;19968;-68
2023/08/10 10:36:25;;;;;;;;;;;15.70;74.40;;;;;;5090332;28;19912;-69
2023/08/10 10:38:58;;;;;;;;;;;15.60;73.90;;;;;;5029410;28;19914;-68
2023/08/10 10:41:30;;;;;;;;;;;15.60;74.50;;;;;;5098859;28;19920;-68
2023/08/10 10:43:57;;;;;;;;;;;15.60;75.50;;;;;;5113301;28;19920;-69
2023/08/10 10:46:33;;;;;;;;;;;15.40;75.80;;;;;;5112913;28;19916;-68
2023/08/10 10:49:00;;;;;;;;;;;15.40;76.00;;;;;;5112480;28;20249;-67
2023/08/10 10:51:29;;;;;;;;;;;15.30;76.10;;;;;;5112745;28;19923;-67
2023/08/10 10:53:56;;;;;;;;;;;15.20;75.90;;;;;;5112570;28;19956;-69
2023/08/10 10:56:24;;;;;;;;;;;15.30;76.60;;;;;;5112639;28;19911;-67
2023/08/10 10:58:51;;;;;;;;;;;15.30;76.80;;;;;;5106849;27;19920;-67
2023/08/10 11:01:21;;;;;;;;;;;15.20;76.90;;;;;;5109437;28;19918;-68
2023/08/10 11:03:53;;;;;;;;;;;15.20;76.70;;;;;;5108691;27;19919;-67
2023/08/10 11:06:20;;;;;;;;;;;15.10;76.10;;;;;;5112906;28;19907;-69
2023/08/10 11:08:54;;;;;;;;;;;15.10;76.00;;;;;;5112555;27;20364;-70
2023/08/10 11:11:21;;;;;;;;;;;15.10;75.70;;;;;;5111691;28;20046;-68
2023/08/10 11:13:48;;;;;;;;;;;15.20;75.80;;;;;;5109844;28;20045;-69
2023/08/10 11:16:16;;;;;;;;;;;15.20;76.00;;;;;;5112344;28;19976;-69
2023/08/10 11:18:42;;;;;;;;;;;15.20;76.10;;;;;;5111706;28;19912;-67
2023/08/10 11:21:10;;;;;;;;;;;15.20;76.20;;;;;;5110227;28;19912;-67
2023/08/10 11:23:38;;;;;;;;;;;15.10;76.10;;;;;;5112232;27;20359;-68
2023/08/10 11:26:05;;;;;;;;;;;15.20;76.30;;;;;;5112577;28;19908;-68
2023/08/10 11:28:32;;;;;;;;;;;15.10;76.50;;;;;;5112624;27;19912;-67
2023/08/10 11:31:03;;;;;;;;;;;15.20;76.50;;;;;;5113553;27;19912;-68
2023/08/10 11:33:30;;;;;;;;;;;15.10;76.80;;;;;;5112451;28;19907;-68
2023/08/10 11:35:58;;;;;;;;;;;15.10;77.00;;;;;;5113887;28;19930;-68
2023/08/10 11:38:25;;;;;;;;;;;15.10;77.60;;;;;;5112986;28;19955;-68
2023/08/10 11:40:55;;;;;;;;;;;15.10;77.40;;;;;;5112374;28;20417;-67
2023/08/10 11:43:25;;;;;;;;;;;15.00;77.50;;;;;;5112640;28;20338;-68
2023/08/10 11:45:54;;;;;;;;;;;15.00;78.20;;;;;;5112300;28;20306;-68
2023/08/10 11:48:22;;;;;;;;;;;15.00;77.90;;;;;;5112865;28;19923;-68
2023/08/10 11:50:58;;;;;;;;;;;15.00;78.30;;;;;;5112723;28;19915;-69
2023/08/10 11:53:25;;;;;;;;;;;14.90;78.60;;;;;;5112650;28;19912;-70
2023/08/10 11:55:53;;;;;;;;;;;14.90;78.70;;;;;;5113073;28;19908;-68
2023/08/10 11:58:26;;;;;;;;;;;14.90;78.70;;;;;;5112033;28;19912;-68
2023/08/10 12:00:56;;;;;;;;;;;14.80;78.80;;;;;;5113432;28;19907;-68
2023/08/10 12:03:24;;;;;;;;;;;14.90;79.00;;;;;;5077920;28;19919;-67
2023/08/10 12:05:51;;;;;;;;;;;14.80;79.50;;;;;;5074969;28;19912;-68
2023/08/10 12:08:18;;;;;;;;;;;14.80;80.00;;;;;;5075028;28;20422;-69
2023/08/10 12:10:48;;;;;;;;;;;14.70;80.00;;;;;;5098987;28;19930;-69
2023/08/10 12:13:15;;;;;;;;;;;14.70;80.30;;;;;;5112621;28;19942;-67
2023/08/10 12:15:46;;;;;;;;;;;14.60;80.70;;;;;;5113159;28;20010;-68
2023/08/10 12:18:14;;;;;;;;;;;14.60;80.70;;;;;;5113242;28;19907;-68
2023/08/10 12:20:44;;;;;;;;;;;14.60;81.50;;;;;;5113300;28;19907;-68
2023/08/10 12:23:11;;;;;;;;;;;14.50;81.30;;;;;;5112760;28;19915;-68
2023/08/10 12:25:38;;;;;;;;;;;14.50;81.20;;;;;;5112323;28;19919;-67
2023/08/10 12:28:05;;;;;;;;;;;14.50;81.20;;;;;;5112047;28;19916;-69
2023/08/10 12:30:32;;;;;;;;;;;14.40;81.50;;;;;;5113255;28;19930;-68
2023/08/10 12:32:59;;;;;;;;;;;14.40;81.80;;;;;;5113028;28;20281;-69
2023/08/10 12:35:26;;;;;;;;;;;14.30;81.60;;;;;;5112799;28;19931;-67
2023/08/10 12:37:53;;;;;;;;;;;14.30;82.10;;;;;;5092880;28;20353;-69
2023/08/10 12:40:21;;;;;;;;;;;14.30;81.90;;;;;;5092641;28;19914;-69
2023/08/10 12:42:48;;;;;;;;;;;14.30;81.90;;;;;;5092280;28;19922;-69
2023/08/10 12:45:15;;;;;;;;;;;14.30;82.30;;;;;;5092356;28;19916;-68
2023/08/10 12:47:42;;;;;;;;;;;14.30;82.00;;;;;;5096946;28;19955;-67
2023/08/10 12:50:09;;;;;;;;;;;14.30;82.60;;;;;;5113307;28;19961;-69
2023/08/10 12:52:37;;;;;;;;;;;14.20;82.60;;;;;;5113166;28;19998;-68
2023/08/10 12:55:04;;;;;;;;;;;14.20;83.00;;;;;;5111107;28;19907;-70
2023/08/10 12:57:31;;;;;;;;;;;14.20;83.00;;;;;;5092469;28;20319;-69
2023/08/10 12:59:59;;;;;;;;;;;14.10;83.40;;;;;;5093073;28;20365;-68
2023/08/10 13:02:26;;;;;;;;;;;14.00;83.50;;;;;;5093271;28;19919;-66
2023/08/10 13:04:53;;;;;;;;;;;14.10;83.20;;;;;;5073956;28;20265;-69
2023/08/10 13:07:20;;;;;;;;;;;14.00;83.60;;;;;;5074254;28;19912;-68
2023/08/10 13:09:46;;;;;;;;;;;14.10;84.60;;;;;;5092574;28;20292;-68
2023/08/10 13:12:13;;;;;;;;;;;14.10;83.80;;;;;;5092432;28;19948;-69
2023/08/10 13:14:39;;;;;;;;;;;14.00;83.60;;;;;;5092172;28;19908;-68
2023/08/10 13:17:07;;;;;;;;;;;14.00;83.90;;;;;;5112760;28;20379;-68
2023/08/10 13:19:37;;;;;;;;;;;14.00;84.60;;;;;;5094519;28;19908;-70
2023/08/10 13:22:07;;;;;;;;;;;14.00;84.70;;;;;;5111197;28;19912;-71
2023/08/10 13:24:34;;;;;;;;;;;13.90;84.60;;;;;;5110362;28;20292;-68
2023/08/10 13:27:01;;;;;;;;;;;13.80;84.70;;;;;;5110164;28;19919;-68
2023/08/10 13:29:29;;;;;;;;;;;13.80;84.80;;;;;;5111909;28;19912;-69
2023/08/10 13:31:57;;;;;;;;;;;13.90;85.40;;;;;;5109630;28;20410;-70
2023/08/10 13:34:24;;;;;;;;;;;13.70;85.90;;;;;;5111859;28;20360;-68
2023/08/10 13:36:55;;;;;;;;;;;13.70;86.20;;;;;;5112044;28;20368;-68
2023/08/10 13:39:23;;;;;;;;;;;13.70;86.90;;;;;;5112412;28;19908;-70
2023/08/10 13:41:50;;;;;;;;;;;13.60;86.40;;;;;;5112492;28;19915;-69
2023/08/10 13:44:17;;;;;;;;;;;13.50;86.90;;;;;;5112439;28;19920;-67
2023/08/10 13:46:43;;;;;;;;;;;13.50;87.10;;;;;;5094218;28;20364;-70
2023/08/10 13:49:11;;;;;;;;;;;13.50;86.60;;;;;;5094481;28;20468;-68
2023/08/10 13:51:38;;;;;;;;;;;13.50;87.30;;;;;;5094248;28;19918;-69
2023/08/10 13:54:06;;;;;;;;;;;13.50;87.50;;;;;;5115870;28;19914;-68
2023/08/10 13:56:51;;;;;;;;;;;13.40;87.60;;;;;;5115439;28;20023;-67
2023/08/10 13:59:17;;;;;;;;;;;13.40;89.20;;;;;;5116632;28;20306;-70
2023/08/10 14:01:44;;;;;;;;;;;13.30;89.10;;;;;;5115813;28;19908;-69
2023/08/10 14:04:11;;;;;;;;;;;13.30;88.60;;;;;;5116013;28;19919;-69
2023/08/10 14:06:38;;;;;;;;;;;13.20;88.90;;;;;;5115822;28;19911;-67
2023/08/10 14:09:04;;;;;;;;;;;13.20;89.40;;;;;;5115923;28;20011;-69
2023/08/10 14:11:31;;;;;;;;;;;13.10;89.30;;;;;;5099104;28;19914;-69
2023/08/10 14:13:58;;;;;;;;;;;13.10;89.50;;;;;;5095410;28;19909;-68
2023/08/10 14:16:24;;;;;;;;;;;13.00;90.10;;;;;;5098188;28;20400;-69
2023/08/10 14:18:52;;;;;;;;;;;13.00;90.10;;;;;;5095263;28;19908;-66